sensor_id;sensor_type;location;lat;lon;timestamp;pressure;altitude;pressure_sealevel;temperature;humidity
33286;BME280;19656;50.096;20.014;2023-11-19T00:01:58;99589.50;;;5.01;63.87
33286;BME280;19656;50.096;20.014;2023-11-19T00:07:02;99578.02;;;4.96;63.78
33286;BME280;19656;50.096;20.014;2023-11-19T00:12:07;99572.41;;;4.95;63.98
33286;BME280;19656;50.096;20.014;2023-11-19T00:17:10;99572.73;;;4.97;63.75
33286;BME280;19656;50.096;20.014;2023-11-19T00:22:13;99568.40;;;5.00;63.85
33286;BME280;19656;50.096;20.014;2023-11-19T00:27:17;99566.38;;;5.04;64.16
33286;BME280;19656;50.096;20.014;2023-11-19T00:32:21;99567.70;;;5.06;64.01
33286;BME280;19656;50.096;20.014;2023-11-19T00:37:24;99558.63;;;5.10;64.02
33286;BME280;19656;50.096;20.014;2023-11-19T00:42:27;99544.93;;;5.09;63.98
33286;BME280;19656;50.096;20.014;2023-11-19T00:47:31;99534.20;;;5.03;63.71
33286;BME280;19656;50.096;20.014;2023-11-19T00:52:34;99523.92;;;5.06;63.99
33286;BME280;19656;50.096;20.014;2023-11-19T00:57:38;99517.17;;;5.08;63.86
33286;BME280;19656;50.096;20.014;2023-11-19T01:02:41;99515.20;;;4.98;63.67
33286;BME280;19656;50.096;20.014;2023-11-19T01:07:44;99500.54;;;4.94;63.62
33286;BME280;19656;50.096;20.014;2023-11-19T01:12:48;99499.46;;;4.95;63.66
33286;BME280;19656;50.096;20.014;2023-11-19T01:17:51;99499.59;;;4.96;63.76
33286;BME280;19656;50.096;20.014;2023-11-19T01:22:56;99503.52;;;5.00;63.96
33286;BME280;19656;50.096;20.014;2023-11-19T01:27:59;99494.21;;;5.00;63.92
33286;BME280;19656;50.096;20.014;2023-11-19T01:33:02;99499.58;;;5.03;64.51
33286;BME280;19656;50.096;20.014;2023-11-19T01:38:06;99500.11;;;5.08;64.69
33286;BME280;19656;50.096;20.014;2023-11-19T01:43:11;99488.42;;;5.10;64.57
33286;BME280;19656;50.096;20.014;2023-11-19T01:48:14;99485.58;;;5.11;64.45
33286;BME280;19656;50.096;20.014;2023-11-19T01:53:18;99482.96;;;5.11;64.49
33286;BME280;19656;50.096;20.014;2023-11-19T01:58:22;99474.61;;;5.08;64.51
33286;BME280;19656;50.096;20.014;2023-11-19T02:03:26;99467.99;;;5.06;64.72
33286;BME280;19656;50.096;20.014;2023-11-19T02:08:32;99460.84;;;5.10;64.88
33286;BME280;19656;50.096;20.014;2023-11-19T02:13:37;99450.70;;;5.12;64.75
33286;BME280;19656;50.096;20.014;2023-11-19T02:18:41;99447.09;;;5.16;65.09
33286;BME280;19656;50.096;20.014;2023-11-19T02:23:45;99443.67;;;5.18;64.28
33286;BME280;19656;50.096;20.014;2023-11-19T02:28:49;99429.48;;;5.17;63.83
33286;BME280;19656;50.096;20.014;2023-11-19T02:33:52;99403.79;;;5.17;64.02
33286;BME280;19656;50.096;20.014;2023-11-19T02:38:56;99388.23;;;5.14;64.29
33286;BME280;19656;50.096;20.014;2023-11-19T02:43:59;99377.70;;;5.13;64.66
33286;BME280;19656;50.096;20.014;2023-11-19T02:49:02;99367.73;;;5.12;64.56
33286;BME280;19656;50.096;20.014;2023-11-19T02:54:05;99362.33;;;5.10;64.25
33286;BME280;19656;50.096;20.014;2023-11-19T02:59:08;99362.67;;;5.10;64.28
33286;BME280;19656;50.096;20.014;2023-11-19T03:04:21;99347.03;;;5.11;64.98
33286;BME280;19656;50.096;20.014;2023-11-19T03:09:26;99332.41;;;5.11;65.52
33286;BME280;19656;50.096;20.014;2023-11-19T03:14:29;99318.66;;;5.12;65.70
33286;BME280;19656;50.096;20.014;2023-11-19T03:19:32;99306.98;;;5.19;65.74
33286;BME280;19656;50.096;20.014;2023-11-19T03:24:35;99300.65;;;5.24;65.63
33286;BME280;19656;50.096;20.014;2023-11-19T03:29:39;99292.32;;;5.26;65.58
33286;BME280;19656;50.096;20.014;2023-11-19T03:34:42;99284.89;;;5.27;65.58
33286;BME280;19656;50.096;20.014;2023-11-19T03:39:45;99270.67;;;5.31;65.62
33286;BME280;19656;50.096;20.014;2023-11-19T03:44:48;99272.64;;;5.30;65.79
33286;BME280;19656;50.096;20.014;2023-11-19T03:49:52;99276.45;;;5.27;66.11
33286;BME280;19656;50.096;20.014;2023-11-19T03:54:56;99265.08;;;5.30;66.25
33286;BME280;19656;50.096;20.014;2023-11-19T04:00:00;99249.63;;;5.34;66.12
33286;BME280;19656;50.096;20.014;2023-11-19T04:05:14;99238.43;;;5.22;66.36
33286;BME280;19656;50.096;20.014;2023-11-19T04:10:17;99224.77;;;5.16;66.68
33286;BME280;19656;50.096;20.014;2023-11-19T04:15:21;99219.41;;;5.14;66.85
33286;BME280;19656;50.096;20.014;2023-11-19T04:20:25;99223.67;;;5.13;67.10
33286;BME280;19656;50.096;20.014;2023-11-19T04:25:29;99214.51;;;5.09;67.19
33286;BME280;19656;50.096;20.014;2023-11-19T04:30:32;99203.85;;;5.07;67.28
33286;BME280;19656;50.096;20.014;2023-11-19T04:35:35;99198.36;;;5.08;67.42
33286;BME280;19656;50.096;20.014;2023-11-19T04:40:39;99199.64;;;5.11;67.65
33286;BME280;19656;50.096;20.014;2023-11-19T04:45:42;99191.58;;;5.15;67.71
33286;BME280;19656;50.096;20.014;2023-11-19T04:50:46;99163.98;;;5.24;67.60
33286;BME280;19656;50.096;20.014;2023-11-19T04:55:49;99161.10;;;5.26;67.38
33286;BME280;19656;50.096;20.014;2023-11-19T05:00:52;99154.23;;;5.26;67.45
33286;BME280;19656;50.096;20.014;2023-11-19T05:05:56;99146.86;;;5.34;67.30
33286;BME280;19656;50.096;20.014;2023-11-19T05:10:59;99159.18;;;5.25;67.01
33286;BME280;19656;50.096;20.014;2023-11-19T05:16:02;99148.88;;;5.14;67.05
33286;BME280;19656;50.096;20.014;2023-11-19T05:21:06;99147.01;;;5.08;66.93
33286;BME280;19656;50.096;20.014;2023-11-19T05:26:09;99150.89;;;5.08;66.72
33286;BME280;19656;50.096;20.014;2023-11-19T05:31:13;99145.50;;;5.10;66.98
33286;BME280;19656;50.096;20.014;2023-11-19T05:36:16;99151.23;;;5.12;66.58
33286;BME280;19656;50.096;20.014;2023-11-19T05:41:20;99143.26;;;5.00;66.73
33286;BME280;19656;50.096;20.014;2023-11-19T05:46:23;99140.67;;;5.03;67.04
33286;BME280;19656;50.096;20.014;2023-11-19T05:51:28;99141.44;;;5.02;66.90
33286;BME280;19656;50.096;20.014;2023-11-19T05:56:31;99131.02;;;5.03;67.03
33286;BME280;19656;50.096;20.014;2023-11-19T06:01:35;99107.90;;;5.05;67.20
33286;BME280;19656;50.096;20.014;2023-11-19T06:06:39;99101.59;;;5.05;67.34
33286;BME280;19656;50.096;20.014;2023-11-19T06:11:43;99100.16;;;5.10;67.62
33286;BME280;19656;50.096;20.014;2023-11-19T06:16:47;99088.45;;;5.17;67.33
33286;BME280;19656;50.096;20.014;2023-11-19T06:21:51;99102.11;;;5.14;67.45
33286;BME280;19656;50.096;20.014;2023-11-19T06:26:54;99093.61;;;5.15;67.53
33286;BME280;19656;50.096;20.014;2023-11-19T06:31:57;99084.18;;;5.18;67.43
33286;BME280;19656;50.096;20.014;2023-11-19T06:37:00;99083.36;;;5.17;67.51
33286;BME280;19656;50.096;20.014;2023-11-19T06:42:08;99100.31;;;5.15;67.73
33286;BME280;19656;50.096;20.014;2023-11-19T06:47:11;99095.80;;;5.13;67.77
33286;BME280;19656;50.096;20.014;2023-11-19T06:52:14;99097.33;;;5.10;68.07
33286;BME280;19656;50.096;20.014;2023-11-19T06:57:18;99085.39;;;5.10;68.23
33286;BME280;19656;50.096;20.014;2023-11-19T07:02:23;99078.32;;;5.11;68.11
33286;BME280;19656;50.096;20.014;2023-11-19T07:07:33;99063.71;;;5.11;68.18
33286;BME280;19656;50.096;20.014;2023-11-19T07:12:36;99062.48;;;5.15;68.15
33286;BME280;19656;50.096;20.014;2023-11-19T07:17:40;99057.33;;;5.17;68.36
33286;BME280;19656;50.096;20.014;2023-11-19T07:22:43;99037.48;;;5.20;68.26
33286;BME280;19656;50.096;20.014;2023-11-19T07:27:48;99012.57;;;5.36;69.02
33286;BME280;19656;50.096;20.014;2023-11-19T07:32:52;99005.05;;;5.65;68.05
33286;BME280;19656;50.096;20.014;2023-11-19T07:37:56;99008.42;;;5.80;67.43
33286;BME280;19656;50.096;20.014;2023-11-19T07:43:00;99014.61;;;5.92;67.03
33286;BME280;19656;50.096;20.014;2023-11-19T07:48:04;99029.86;;;5.89;66.19
33286;BME280;19656;50.096;20.014;2023-11-19T07:53:07;99024.59;;;5.81;65.68
33286;BME280;19656;50.096;20.014;2023-11-19T07:58:11;99012.59;;;5.78;65.41
33286;BME280;19656;50.096;20.014;2023-11-19T08:03:15;99003.68;;;5.76;65.01
33286;BME280;19656;50.096;20.014;2023-11-19T08:08:19;98989.95;;;5.80;64.00
33286;BME280;19656;50.096;20.014;2023-11-19T08:13:24;98971.40;;;5.81;62.70
33286;BME280;19656;50.096;20.014;2023-11-19T08:18:28;98975.71;;;5.80;62.42
33286;BME280;19656;50.096;20.014;2023-11-19T08:23:31;98968.44;;;5.89;62.94
33286;BME280;19656;50.096;20.014;2023-11-19T08:28:34;98956.02;;;6.03;61.80
33286;BME280;19656;50.096;20.014;2023-11-19T08:33:38;98939.13;;;5.96;61.52
33286;BME280;19656;50.096;20.014;2023-11-19T08:38:41;98935.49;;;5.93;61.59
33286;BME280;19656;50.096;20.014;2023-11-19T08:43:45;98943.77;;;5.98;61.47
33286;BME280;19656;50.096;20.014;2023-11-19T08:48:48;98936.12;;;6.07;61.27
33286;BME280;19656;50.096;20.014;2023-11-19T08:53:51;98933.15;;;6.26;61.82
33286;BME280;19656;50.096;20.014;2023-11-19T08:58:55;98933.53;;;6.22;60.56
33286;BME280;19656;50.096;20.014;2023-11-19T09:03:58;98933.00;;;6.18;60.55
33286;BME280;19656;50.096;20.014;2023-11-19T09:09:02;98917.60;;;6.20;60.66
33286;BME280;19656;50.096;20.014;2023-11-19T09:14:08;98916.73;;;6.19;60.72
33286;BME280;19656;50.096;20.014;2023-11-19T09:19:11;98914.59;;;6.23;60.80
33286;BME280;19656;50.096;20.014;2023-11-19T09:24:15;98905.79;;;6.23;60.67
33286;BME280;19656;50.096;20.014;2023-11-19T09:29:18;98895.21;;;6.23;60.27
33286;BME280;19656;50.096;20.014;2023-11-19T09:34:22;98876.08;;;6.29;60.80
33286;BME280;19656;50.096;20.014;2023-11-19T09:39:25;98859.95;;;6.57;61.76
33286;BME280;19656;50.096;20.014;2023-11-19T09:44:28;98844.38;;;6.66;59.54
33286;BME280;19656;50.096;20.014;2023-11-19T09:49:32;98841.13;;;6.49;59.35
33286;BME280;19656;50.096;20.014;2023-11-19T09:54:38;98821.27;;;6.52;59.98
33286;BME280;19656;50.096;20.014;2023-11-19T09:59:42;98831.05;;;6.54;59.93
33286;BME280;19656;50.096;20.014;2023-11-19T10:04:46;98830.67;;;6.65;60.11
33286;BME280;19656;50.096;20.014;2023-11-19T10:09:50;98823.29;;;6.64;59.37
33286;BME280;19656;50.096;20.014;2023-11-19T10:14:56;98811.23;;;6.66;59.53
33286;BME280;19656;50.096;20.014;2023-11-19T10:20:01;98790.06;;;6.80;59.70
33286;BME280;19656;50.096;20.014;2023-11-19T10:25:26;98783.45;;;6.89;59.35
33286;BME280;19656;50.096;20.014;2023-11-19T10:30:29;98773.70;;;7.00;59.17
33286;BME280;19656;50.096;20.014;2023-11-19T10:35:54;98774.61;;;6.89;58.56
33286;BME280;19656;50.096;20.014;2023-11-19T10:41:00;98758.15;;;6.90;58.96
33286;BME280;19656;50.096;20.014;2023-11-19T10:46:10;98744.65;;;6.99;59.02
33286;BME280;19656;50.096;20.014;2023-11-19T10:51:18;98727.77;;;7.01;58.91
33286;BME280;19656;50.096;20.014;2023-11-19T10:56:25;98720.83;;;6.99;59.06
33286;BME280;19656;50.096;20.014;2023-11-19T11:01:39;98693.27;;;7.01;58.87
33286;BME280;19656;50.096;20.014;2023-11-19T11:06:47;98686.77;;;7.06;59.25
33286;BME280;19656;50.096;20.014;2023-11-19T11:11:51;98686.64;;;7.05;58.73
33286;BME280;19656;50.096;20.014;2023-11-19T11:16:56;98664.84;;;7.11;59.59
33286;BME280;19656;50.096;20.014;2023-11-19T11:22:00;98656.22;;;7.13;58.24
33286;BME280;19656;50.096;20.014;2023-11-19T11:27:31;98639.97;;;7.17;58.22
33286;BME280;19656;50.096;20.014;2023-11-19T11:32:43;98631.68;;;7.23;57.28
33286;BME280;19656;50.096;20.014;2023-11-19T11:37:50;98621.48;;;7.23;57.43
33286;BME280;19656;50.096;20.014;2023-11-19T11:42:55;98618.36;;;7.25;58.19
33286;BME280;19656;50.096;20.014;2023-11-19T11:58:08;98602.42;;;7.36;58.80
33286;BME280;19656;50.096;20.014;2023-11-19T12:03:12;98598.05;;;7.29;58.42
33286;BME280;19656;50.096;20.014;2023-11-19T12:08:20;98591.67;;;7.23;58.89
33286;BME280;19656;50.096;20.014;2023-11-19T12:14:03;98586.27;;;7.22;60.01
33286;BME280;19656;50.096;20.014;2023-11-19T12:19:12;98570.70;;;7.16;61.23
33286;BME280;19656;50.096;20.014;2023-11-19T12:24:16;98557.88;;;7.09;61.58
33286;BME280;19656;50.096;20.014;2023-11-19T12:29:20;98547.95;;;6.87;61.25
33286;BME280;19656;50.096;20.014;2023-11-19T12:34:23;98541.63;;;6.77;61.81
33286;BME280;19656;50.096;20.014;2023-11-19T12:39:30;98527.20;;;6.77;62.07
33286;BME280;19656;50.096;20.014;2023-11-19T12:44:33;98522.64;;;6.79;62.65
33286;BME280;19656;50.096;20.014;2023-11-19T12:49:37;98517.02;;;6.63;62.55
33286;BME280;19656;50.096;20.014;2023-11-19T12:54:40;98513.25;;;6.51;63.94
33286;BME280;19656;50.096;20.014;2023-11-19T12:59:54;98507.12;;;6.41;64.48
33286;BME280;19656;50.096;20.014;2023-11-19T13:04:58;98496.38;;;6.27;64.91
33286;BME280;19656;50.096;20.014;2023-11-19T13:10:02;98490.39;;;6.24;65.64
33286;BME280;19656;50.096;20.014;2023-11-19T13:15:06;98478.60;;;6.24;66.02
33286;BME280;19656;50.096;20.014;2023-11-19T13:20:09;98473.41;;;6.29;66.29
33286;BME280;19656;50.096;20.014;2023-11-19T13:25:14;98473.26;;;6.31;65.93
33286;BME280;19656;50.096;20.014;2023-11-19T13:30:17;98470.73;;;6.33;66.23
33286;BME280;19656;50.096;20.014;2023-11-19T13:35:23;98460.53;;;6.49;70.74
33286;BME280;19656;50.096;20.014;2023-11-19T13:40:27;98458.33;;;6.76;68.41
33286;BME280;19656;50.096;20.014;2023-11-19T13:45:30;98451.61;;;6.60;67.48
33286;BME280;19656;50.096;20.014;2023-11-19T13:50:33;98447.80;;;6.46;67.49
33286;BME280;19656;50.096;20.014;2023-11-19T13:55:37;98449.64;;;6.32;67.77
33286;BME280;19656;50.096;20.014;2023-11-19T14:00:40;98445.72;;;6.20;68.17
33286;BME280;19656;50.096;20.014;2023-11-19T14:05:45;98445.98;;;6.08;68.57
33286;BME280;19656;50.096;20.014;2023-11-19T14:10:49;98444.50;;;6.06;69.07
33286;BME280;19656;50.096;20.014;2023-11-19T14:15:52;98446.23;;;6.03;69.31
33286;BME280;19656;50.096;20.014;2023-11-19T14:20:55;98439.14;;;6.05;70.15
33286;BME280;19656;50.096;20.014;2023-11-19T14:25:59;98433.40;;;6.36;70.65
33286;BME280;19656;50.096;20.014;2023-11-19T14:31:02;98432.18;;;6.45;69.17
33286;BME280;19656;50.096;20.014;2023-11-19T14:36:06;98425.02;;;6.44;68.81
33286;BME280;19656;50.096;20.014;2023-11-19T14:41:10;98420.20;;;6.35;68.71
33286;BME280;19656;50.096;20.014;2023-11-19T14:46:13;98416.76;;;6.24;69.00
33286;BME280;19656;50.096;20.014;2023-11-19T14:51:16;98413.20;;;6.22;69.30
33286;BME280;19656;50.096;20.014;2023-11-19T14:56:19;98416.27;;;6.13;69.53
33286;BME280;19656;50.096;20.014;2023-11-19T15:01:23;98409.92;;;6.07;70.11
33286;BME280;19656;50.096;20.014;2023-11-19T15:06:27;98410.05;;;6.05;70.65
33286;BME280;19656;50.096;20.014;2023-11-19T15:11:31;98403.24;;;6.07;70.72
33286;BME280;19656;50.096;20.014;2023-11-19T15:16:34;98397.64;;;6.10;70.81
33286;BME280;19656;50.096;20.014;2023-11-19T15:21:38;98393.48;;;6.15;70.95
33286;BME280;19656;50.096;20.014;2023-11-19T15:26:41;98389.67;;;6.20;70.73
33286;BME280;19656;50.096;20.014;2023-11-19T15:31:45;98380.46;;;6.24;71.06
33286;BME280;19656;50.096;20.014;2023-11-19T15:36:48;98374.73;;;6.23;71.06
33286;BME280;19656;50.096;20.014;2023-11-19T15:41:51;98370.24;;;6.24;71.23
33286;BME280;19656;50.096;20.014;2023-11-19T15:46:54;98366.67;;;6.31;71.23
33286;BME280;19656;50.096;20.014;2023-11-19T15:51:58;98370.99;;;6.27;71.12
33286;BME280;19656;50.096;20.014;2023-11-19T15:57:01;98368.39;;;6.20;71.54
33286;BME280;19656;50.096;20.014;2023-11-19T16:02:04;98369.02;;;6.18;71.59
33286;BME280;19656;50.096;20.014;2023-11-19T16:07:08;98362.15;;;6.27;73.57
33286;BME280;19656;50.096;20.014;2023-11-19T16:12:11;98356.21;;;6.52;72.06
33286;BME280;19656;50.096;20.014;2023-11-19T16:17:15;98355.52;;;6.48;71.47
33286;BME280;19656;50.096;20.014;2023-11-19T16:22:18;98354.20;;;6.47;71.48
33286;BME280;19656;50.096;20.014;2023-11-19T16:27:23;98352.42;;;6.47;71.65
33286;BME280;19656;50.096;20.014;2023-11-19T16:32:30;98346.64;;;6.40;71.81
33286;BME280;19656;50.096;20.014;2023-11-19T16:37:33;98347.72;;;6.37;71.94
33286;BME280;19656;50.096;20.014;2023-11-19T16:42:37;98351.41;;;6.34;72.17
33286;BME280;19656;50.096;20.014;2023-11-19T16:47:41;98338.25;;;6.29;72.35
33286;BME280;19656;50.096;20.014;2023-11-19T16:52:45;98329.79;;;6.24;72.64
33286;BME280;19656;50.096;20.014;2023-11-19T16:57:48;98338.28;;;6.20;72.85
33286;BME280;19656;50.096;20.014;2023-11-19T17:02:51;98337.14;;;6.27;73.02
33286;BME280;19656;50.096;20.014;2023-11-19T17:07:54;98335.31;;;6.32;73.16
33286;BME280;19656;50.096;20.014;2023-11-19T17:12:58;98332.89;;;6.43;74.94
33286;BME280;19656;50.096;20.014;2023-11-19T17:18:01;98326.76;;;6.98;74.78
33286;BME280;19656;50.096;20.014;2023-11-19T17:23:04;98324.67;;;6.88;72.72
33286;BME280;19656;50.096;20.014;2023-11-19T17:28:08;98330.33;;;6.82;72.71
33286;BME280;19656;50.096;20.014;2023-11-19T17:33:12;98332.94;;;6.77;72.93
33286;BME280;19656;50.096;20.014;2023-11-19T17:38:15;98322.61;;;6.75;73.11
33286;BME280;19656;50.096;20.014;2023-11-19T17:43:23;98305.16;;;6.78;73.56
33286;BME280;19656;50.096;20.014;2023-11-19T17:48:27;98297.63;;;7.04;73.81
33286;BME280;19656;50.096;20.014;2023-11-19T17:53:31;98305.28;;;7.06;72.52
33286;BME280;19656;50.096;20.014;2023-11-19T17:58:35;98310.23;;;6.91;72.63
33286;BME280;19656;50.096;20.014;2023-11-19T18:03:39;98308.57;;;6.77;73.07
33286;BME280;19656;50.096;20.014;2023-11-19T18:08:43;98304.90;;;6.67;73.67
33286;BME280;19656;50.096;20.014;2023-11-19T18:13:47;98305.51;;;6.63;73.95
33286;BME280;19656;50.096;20.014;2023-11-19T18:18:52;98311.13;;;6.60;74.15
33286;BME280;19656;50.096;20.014;2023-11-19T18:23:55;98300.88;;;6.55;74.26
33286;BME280;19656;50.096;20.014;2023-11-19T18:28:59;98297.67;;;6.58;74.25
33286;BME280;19656;50.096;20.014;2023-11-19T18:34:03;98294.65;;;6.65;74.28
33286;BME280;19656;50.096;20.014;2023-11-19T18:39:07;98288.97;;;6.75;74.99
33286;BME280;19656;50.096;20.014;2023-11-19T18:44:12;98293.79;;;7.04;74.66
33286;BME280;19656;50.096;20.014;2023-11-19T18:49:18;98296.10;;;7.03;73.53
33286;BME280;19656;50.096;20.014;2023-11-19T18:54:21;98302.77;;;6.95;73.50
33286;BME280;19656;50.096;20.014;2023-11-19T18:59:25;98308.52;;;6.87;73.87
33286;BME280;19656;50.096;20.014;2023-11-19T19:04:28;98309.42;;;6.90;74.02
33286;BME280;19656;50.096;20.014;2023-11-19T19:09:32;98301.96;;;7.00;74.08
33286;BME280;19656;50.096;20.014;2023-11-19T19:14:35;98293.98;;;7.06;73.89
33286;BME280;19656;50.096;20.014;2023-11-19T19:19:39;98290.62;;;7.07;73.85
33286;BME280;19656;50.096;20.014;2023-11-19T19:24:42;98285.74;;;7.05;73.95
33286;BME280;19656;50.096;20.014;2023-11-19T19:29:46;98293.95;;;7.07;73.98
33286;BME280;19656;50.096;20.014;2023-11-19T19:34:49;98295.91;;;7.01;73.95
33286;BME280;19656;50.096;20.014;2023-11-19T19:39:55;98296.72;;;7.16;74.91
33286;BME280;19656;50.096;20.014;2023-11-19T19:44:58;98298.42;;;7.38;73.88
33286;BME280;19656;50.096;20.014;2023-11-19T19:50:07;98301.35;;;7.36;73.25
33286;BME280;19656;50.096;20.014;2023-11-19T19:55:13;98303.27;;;7.33;73.27
33286;BME280;19656;50.096;20.014;2023-11-19T20:00:19;98298.83;;;7.31;73.24
33286;BME280;19656;50.096;20.014;2023-11-19T20:05:25;98296.96;;;7.30;73.24
33286;BME280;19656;50.096;20.014;2023-11-19T20:10:30;98294.23;;;7.28;73.39
33286;BME280;19656;50.096;20.014;2023-11-19T20:15:36;98288.52;;;7.21;73.59
33286;BME280;19656;50.096;20.014;2023-11-19T20:20:40;98294.42;;;7.34;74.02
33286;BME280;19656;50.096;20.014;2023-11-19T20:25:43;98289.23;;;7.41;73.53
33286;BME280;19656;50.096;20.014;2023-11-19T20:30:46;98290.85;;;7.43;73.24
33286;BME280;19656;50.096;20.014;2023-11-19T20:35:50;98290.96;;;7.42;73.30
33286;BME280;19656;50.096;20.014;2023-11-19T20:40:53;98287.43;;;7.39;73.43
33286;BME280;19656;50.096;20.014;2023-11-19T20:45:56;98278.48;;;7.32;73.71
33286;BME280;19656;50.096;20.014;2023-11-19T20:50:59;98275.55;;;7.25;74.18
33286;BME280;19656;50.096;20.014;2023-11-19T20:56:03;98287.19;;;7.17;74.61
33286;BME280;19656;50.096;20.014;2023-11-19T21:01:07;98284.14;;;7.17;75.08
33286;BME280;19656;50.096;20.014;2023-11-19T21:06:10;98289.66;;;7.25;75.35
33286;BME280;19656;50.096;20.014;2023-11-19T21:11:13;98298.61;;;7.32;75.48
33286;BME280;19656;50.096;20.014;2023-11-19T21:16:16;98306.58;;;7.41;75.68
33286;BME280;19656;50.096;20.014;2023-11-19T21:21:20;98307.77;;;7.49;75.87
33286;BME280;19656;50.096;20.014;2023-11-19T21:26:24;98309.07;;;7.54;76.12
33286;BME280;19656;50.096;20.014;2023-11-19T21:31:27;98313.21;;;7.56;76.37
33286;BME280;19656;50.096;20.014;2023-11-19T21:36:30;98315.96;;;7.68;76.61
33286;BME280;19656;50.096;20.014;2023-11-19T21:41:33;98316.42;;;7.81;76.74
33286;BME280;19656;50.096;20.014;2023-11-19T21:46:36;98314.34;;;7.92;76.96
33286;BME280;19656;50.096;20.014;2023-11-19T21:51:40;98317.24;;;8.01;77.17
33286;BME280;19656;50.096;20.014;2023-11-19T21:56:44;98317.13;;;8.09;77.20
33286;BME280;19656;50.096;20.014;2023-11-19T22:01:47;98315.19;;;8.15;77.30
33286;BME280;19656;50.096;20.014;2023-11-19T22:06:52;98310.90;;;8.18;77.29
33286;BME280;19656;50.096;20.014;2023-11-19T22:11:56;98299.27;;;8.23;77.53
33286;BME280;19656;50.096;20.014;2023-11-19T22:16:59;98306.29;;;8.32;77.47
33286;BME280;19656;50.096;20.014;2023-11-19T22:22:02;98307.40;;;8.40;77.51
33286;BME280;19656;50.096;20.014;2023-11-19T22:27:06;98301.55;;;8.43;77.21
33286;BME280;19656;50.096;20.014;2023-11-19T22:32:09;98293.63;;;8.37;76.60
33286;BME280;19656;50.096;20.014;2023-11-19T22:37:12;98298.27;;;8.27;76.42
33286;BME280;19656;50.096;20.014;2023-11-19T22:42:15;98300.02;;;8.17;76.34
33286;BME280;19656;50.096;20.014;2023-11-19T22:47:18;98300.50;;;8.12;76.39
33286;BME280;19656;50.096;20.014;2023-11-19T22:52:22;98297.70;;;8.14;76.35
33286;BME280;19656;50.096;20.014;2023-11-19T22:57:25;98288.56;;;8.19;76.25
33286;BME280;19656;50.096;20.014;2023-11-19T23:02:28;98292.66;;;8.21;76.12
33286;BME280;19656;50.096;20.014;2023-11-19T23:07:32;98293.89;;;8.19;76.13
33286;BME280;19656;50.096;20.014;2023-11-19T23:12:35;98296.32;;;8.14;76.20
33286;BME280;19656;50.096;20.014;2023-11-19T23:17:38;98300.16;;;8.09;76.49
33286;BME280;19656;50.096;20.014;2023-11-19T23:22:42;98298.86;;;8.10;76.58
33286;BME280;19656;50.096;20.014;2023-11-19T23:27:46;98293.72;;;8.13;76.93
33286;BME280;19656;50.096;20.014;2023-11-19T23:32:49;98286.73;;;8.14;77.22
33286;BME280;19656;50.096;20.014;2023-11-19T23:37:52;98291.48;;;8.18;77.37
33286;BME280;19656;50.096;20.014;2023-11-19T23:42:56;98292.06;;;8.17;77.45
33286;BME280;19656;50.096;20.014;2023-11-19T23:47:59;98293.78;;;8.15;77.63
33286;BME280;19656;50.096;20.014;2023-11-19T23:53:03;98298.59;;;8.20;77.68
33286;BME280;19656;50.096;20.014;2023-11-19T23:58:06;98301.89;;;8.26;77.79
